Time,TemperatureF,DewpointF,PressureIn,WindDirection,WindDirectionDegrees,WindSpeedMPH,WindSpeedGustMPH,Humidity,HourlyPrecipIn,Conditions,Clouds,dailyrainin,SoftwareType,DateUTC
2013-03-01 04:02:00,34.0,32.0,-100.00,North,5,2.0,3.0,92,-99.99,,,-99.99,,2013-03-01 09:02:00,
2013-03-01 04:12:00,35.0,32.0,-100.00,NNW,335,2.0,5.0,91,-99.99,,,-99.99,,2013-03-01 09:12:00,
2013-03-01 04:22:00,34.0,32.0,-100.00,NW,320,2.0,3.0,92,-99.99,,,-99.99,,2013-03-01 09:22:00,
2013-03-01 04:30:00,34.0,32.0,-100.00,NNW,345,1.0,2.0,91,-99.99,,,-99.99,,2013-03-01 09:30:00,
2013-03-01 04:32:00,34.0,32.0,-100.00,NW,315,1.0,2.0,92,-99.99,,,-99.99,,2013-03-01 09:32:00,
2013-03-01 04:42:00,34.0,32.0,-100.00,NNW,335,2.0,2.0,91,-99.99,,,-99.99,,2013-03-01 09:42:00,
2013-03-01 04:52:00,35.0,32.0,-100.00,North,355,1.0,2.0,91,-99.99,,,-99.99,,2013-03-01 09:52:00,
2013-03-01 05:02:00,35.0,32.0,-100.00,North,355,1.0,2.0,91,-99.99,,,-99.99,,2013-03-01 10:02:00,
2013-03-01 05:12:00,34.0,32.0,-100.00,NNW,345,1.0,2.0,91,-99.99,,,-99.99,,2013-03-01 10:12:00,
2013-03-01 05:22:00,34.0,32.0,-100.00,NNW,345,1.0,2.0,91,-99.99,,,-99.99,,2013-03-01 10:22:00,
2013-03-01 05:42:00,33.0,32.0,-100.00,SSW,210,0.0,2.0,97,-99.99,,,-99.99,,2013-03-01 10:42:00,
2013-03-01 05:53:00,33.0,32.0,-100.00,SSW,210,0.0,2.0,97,-99.99,,,-99.99,,2013-03-01 10:53:00,
2013-03-01 06:02:00,33.0,32.0,-100.00,SSE,150,1.0,3.0,98,-99.99,,,-99.99,,2013-03-01 11:02:00,
2013-03-01 06:12:00,32.0,32.0,-100.00,West,260,1.0,2.0,99,-99.99,,,-99.99,,2013-03-01 11:12:00,
2013-03-01 06:23:00,32.0,30.0,-100.00,NNE,15,-999.0,2.0,93,-99.99,,,-99.99,,2013-03-01 11:23:00,
2013-03-01 06:32:00,31.0,29.0,-100.00,North,355,1.0,2.0,93,-99.99,,,-99.99,,2013-03-01 11:32:00,
2013-03-01 06:42:00,31.0,29.0,-100.00,ESE,110,0.0,2.0,93,-99.99,,,-99.99,,2013-03-01 11:42:00,
2013-03-01 06:52:00,31.0,30.0,-100.00,NE,45,1.0,5.0,93,-99.99,,,-99.99,,2013-03-01 11:52:00,
2013-03-01 07:02:00,31.0,30.0,-100.00,South,185,1.0,3.0,93,-99.99,,,-99.99,,2013-03-01 12:02:00,
2013-03-01 07:11:00,31.0,30.0,-100.00,East,100,1.0,3.0,93,-99.99,,,-99.99,,2013-03-01 12:11:00,
2013-03-01 07:22:00,31.0,30.0,-100.00,NNE,20,1.0,3.0,93,-99.99,,,-99.99,,2013-03-01 12:22:00,
2013-03-01 07:32:00,32.0,30.0,-100.00,SSE,160,2.0,5.0,93,-99.99,,,-99.99,,2013-03-01 12:32:00,
2013-03-01 07:42:00,32.0,32.0,-100.00,ENE,65,1.0,5.0,100,-99.99,,,-99.99,,2013-03-01 12:42:00,
2013-03-01 07:52:00,33.0,32.0,-100.00,South,175,2.0,5.0,98,-99.99,,,-99.99,,2013-03-01 12:52:00,
2013-03-01 08:01:00,33.0,32.0,-100.00,NW,310,2.0,5.0,98,-99.99,,,-99.99,,2013-03-01 13:01:00,
2013-03-01 08:12:00,33.0,32.0,-100.00,WNW,295,2.0,3.0,96,-99.99,,,-99.99,,2013-03-01 13:12:00,
2013-03-01 08:22:00,33.0,32.0,-100.00,WNW,295,2.0,3.0,96,-99.99,,,-99.99,,2013-03-01 13:22:00,
2013-03-01 08:32:00,35.0,32.0,-100.00,NNW,335,5.0,9.0,87,-99.99,,,-99.99,,2013-03-01 13:32:00,
2013-03-01 08:42:00,37.0,32.0,-100.00,NNW,340,6.0,10.0,83,-99.99,,,-99.99,,2013-03-01 13:42:00,
2013-03-01 08:52:00,38.0,32.0,-100.00,NNW,340,5.0,9.0,79,-99.99,,,-99.99,,2013-03-01 13:52:00,
2013-03-01 09:02:00,38.0,32.0,-100.00,North,350,6.0,9.0,79,-99.99,,,-99.99,,2013-03-01 14:02:00,
2013-03-01 09:12:00,39.0,32.0,-100.00,NNW,340,10.0,18.0,77,-99.99,,,-99.99,,2013-03-01 14:12:00,
2013-03-01 09:22:00,40.0,32.0,-100.00,NNW,340,9.0,16.0,74,-99.99,,,-99.99,,2013-03-01 14:22:00,
2013-03-01 09:32:00,40.0,32.0,-100.00,NNW,345,9.0,20.0,74,-99.99,,,-99.99,,2013-03-01 14:32:00,
2013-03-01 09:42:00,40.0,32.0,-100.00,NNW,335,9.0,17.0,73,-99.99,,,-99.99,,2013-03-01 14:42:00,
2013-03-01 09:52:00,40.0,32.0,-100.00,NNW,345,7.0,17.0,73,-99.99,,,-99.99,,2013-03-01 14:52:00,
2013-03-01 10:02:00,40.0,32.0,-100.00,North,0,10.0,17.0,73,-99.99,,,-99.99,,2013-03-01 15:02:00,
2013-03-01 10:11:00,40.0,32.0,-100.00,North,0,10.0,17.0,73,-99.99,,,-99.99,,2013-03-01 15:11:00,
2013-03-01 10:21:00,41.0,32.0,-100.00,NNW,345,6.0,16.0,69,-99.99,,,-99.99,,2013-03-01 15:21:00,
2013-03-01 10:30:00,42.0,32.0,-100.00,NNW,335,10.0,23.0,68,-99.99,,,-99.99,,2013-03-01 15:30:00,
2013-03-01 10:32:00,40.0,32.0,-100.00,North,0,9.0,20.0,72,-99.99,,,-99.99,,2013-03-01 15:32:00,
2013-03-01 10:42:00,43.0,32.0,-100.00,NNW,340,8.0,15.0,66,-99.99,,,-99.99,,2013-03-01 15:42:00,
2013-03-01 10:52:00,42.0,32.0,-100.00,NNW,340,8.0,17.0,67,-99.99,,,-99.99,,2013-03-01 15:52:00,
2013-03-01 11:01:00,42.0,32.0,-100.00,NNW,340,8.0,17.0,67,-99.99,,,-99.99,,2013-03-01 16:01:00,
2013-03-01 11:11:00,42.0,32.0,-100.00,NNW,335,10.0,23.0,68,-99.99,,,-99.99,,2013-03-01 16:11:00,
2013-03-01 11:22:00,42.0,32.0,-100.00,NNW,335,10.0,23.0,68,-99.99,,,-99.99,,2013-03-01 16:22:00,
2013-03-01 12:01:00,42.0,32.0,-100.00,NNW,345,7.0,15.0,68,-99.99,,,-99.99,,2013-03-01 17:01:00,
2013-03-01 12:11:00,42.0,32.0,-100.00,North,350,8.0,15.0,68,-99.99,,,-99.99,,2013-03-01 17:11:00,
2013-03-01 12:21:00,43.0,32.0,-100.00,North,0,6.0,15.0,66,-99.99,,,-99.99,,2013-03-01 17:21:00,
2013-03-01 12:32:00,43.0,32.0,-100.00,NW,320,7.0,13.0,66,-99.99,,,-99.99,,2013-03-01 17:32:00,
2013-03-01 12:42:00,43.0,32.0,-100.00,NW,325,5.0,15.0,66,-99.99,,,-99.99,,2013-03-01 17:42:00,
2013-03-01 12:52:00,43.0,32.0,-100.00,North,5,5.0,15.0,66,-99.99,,,-99.99,,2013-03-01 17:52:00,
2013-03-01 13:02:00,42.0,32.0,-100.00,NNE,20,8.0,16.0,67,-99.99,,,-99.99,,2013-03-01 18:02:00,
2013-03-01 13:12:00,42.0,32.0,-100.00,NNW,330,7.0,14.0,67,-99.99,,,-99.99,,2013-03-01 18:12:00,
2013-03-01 13:22:00,42.0,32.0,-100.00,North,5,9.0,16.0,68,-99.99,,,-99.99,,2013-03-01 18:22:00,
2013-03-01 13:32:00,42.0,32.0,-100.00,NNW,345,9.0,17.0,68,-99.99,,,-99.99,,2013-03-01 18:32:00,
2013-03-01 13:42:00,42.0,32.0,-100.00,North,10,7.0,15.0,68,-99.99,,,-99.99,,2013-03-01 18:42:00,
2013-03-01 13:52:00,42.0,32.0,-100.00,North,0,5.0,17.0,68,-99.99,,,-99.99,,2013-03-01 18:52:00,
2013-03-01 14:02:00,42.0,32.0,-100.00,North,355,5.0,14.0,67,-99.99,,,-99.99,,2013-03-01 19:02:00,
2013-03-01 14:11:00,42.0,32.0,-100.00,NNE,15,8.0,15.0,68,-99.99,,,-99.99,,2013-03-01 19:11:00,
2013-03-01 14:21:00,42.0,32.0,-100.00,NNW,345,8.0,16.0,69,-99.99,,,-99.99,,2013-03-01 19:21:00,
2013-03-01 14:32:00,42.0,32.0,-100.00,North,0,6.0,14.0,69,-99.99,,,-99.99,,2013-03-01 19:32:00,
2013-03-01 14:42:00,42.0,32.0,-100.00,NNW,345,8.0,14.0,67,-99.99,,,-99.99,,2013-03-01 19:42:00,
2013-03-01 14:51:00,42.0,32.0,-100.00,North,350,7.0,13.0,68,-99.99,,,-99.99,,2013-03-01 19:51:00,
2013-03-01 15:01:00,42.0,32.0,-100.00,NNE,15,6.0,15.0,68,-99.99,,,-99.99,,2013-03-01 20:01:00,
2013-03-01 15:11:00,41.0,32.0,-100.00,North,10,7.0,17.0,69,-99.99,,,-99.99,,2013-03-01 20:11:00,
2013-03-01 15:21:00,41.0,32.0,-100.00,North,5,3.0,12.0,69,-99.99,,,-99.99,,2013-03-01 20:21:00,
2013-03-01 15:32:00,41.0,32.0,-100.00,North,350,6.0,10.0,71,-99.99,,,-99.99,,2013-03-01 20:32:00,
2013-03-01 15:42:00,41.0,32.0,-100.00,North,5,7.0,13.0,71,-99.99,,,-99.99,,2013-03-01 20:42:00,
2013-03-01 15:52:00,41.0,32.0,-100.00,NNE,15,6.0,9.0,71,-99.99,,,-99.99,,2013-03-01 20:52:00,
2013-03-01 16:02:00,41.0,32.0,-100.00,North,350,8.0,14.0,71,-99.99,,,-99.99,,2013-03-01 21:02:00,
2013-03-01 16:10:00,39.0,32.0,-100.00,North,5,6.0,13.0,75,-99.99,,,-99.99,,2013-03-01 21:10:00,
2013-03-01 16:11:00,40.0,32.0,-100.00,North,350,5.0,9.0,72,-99.99,,,-99.99,,2013-03-01 21:11:00,
2013-03-01 16:21:00,40.0,32.0,-100.00,North,0,7.0,12.0,72,-99.99,,,-99.99,,2013-03-01 21:21:00,
2013-03-01 16:32:00,40.0,32.0,-100.00,North,0,7.0,12.0,73,-99.99,,,-99.99,,2013-03-01 21:32:00,
2013-03-01 16:42:00,40.0,32.0,-100.00,NNE,25,5.0,13.0,74,-99.99,,,-99.99,,2013-03-01 21:42:00,
2013-03-01 16:52:00,39.0,32.0,-100.00,North,5,6.0,13.0,75,-99.99,,,-99.99,,2013-03-01 21:52:00,
2013-03-01 17:01:00,39.0,32.0,-100.00,North,5,6.0,13.0,75,-99.99,,,-99.99,,2013-03-01 22:01:00,
2013-03-01 18:11:00,39.0,32.0,-100.00,NW,315,3.0,8.0,77,-99.99,,,-99.99,,2013-03-01 23:11:00,
2013-03-01 18:21:00,39.0,32.0,-100.00,NW,305,2.0,9.0,76,-99.99,,,-99.99,,2013-03-01 23:21:00,
2013-03-01 18:32:00,39.0,32.0,-100.00,North,355,3.0,7.0,75,-99.99,,,-99.99,,2013-03-01 23:32:00,
2013-03-01 18:42:00,39.0,32.0,-100.00,NNW,345,5.0,8.0,77,-99.99,,,-99.99,,2013-03-01 23:42:00,
2013-03-01 18:52:00,39.0,32.0,-100.00,NNW,345,5.0,10.0,77,-99.99,,,-99.99,,2013-03-01 23:52:00,
2013-03-01 19:02:00,38.0,32.0,-100.00,North,5,3.0,5.0,78,-99.99,,,-99.99,,2013-03-02 00:02:00,
2013-03-01 19:12:00,38.0,32.0,-100.00,North,5,2.0,5.0,79,-99.99,,,-99.99,,2013-03-02 00:12:00,
2013-03-01 19:22:00,38.0,32.0,-100.00,NNW,340,2.0,5.0,79,-99.99,,,-99.99,,2013-03-02 00:22:00,
2013-03-01 19:42:00,38.0,32.0,-100.00,North,0,1.0,5.0,79,-99.99,,,-99.99,,2013-03-02 00:42:00,
2013-03-01 19:52:00,38.0,32.0,-100.00,North,355,3.0,5.0,79,-99.99,,,-99.99,,2013-03-02 00:52:00,
2013-03-01 20:01:00,38.0,32.0,-100.00,NNW,345,2.0,5.0,79,-99.99,,,-99.99,,2013-03-02 01:01:00,
2013-03-01 20:11:00,38.0,32.0,-100.00,NNW,340,2.0,6.0,79,-99.99,,,-99.99,,2013-03-02 01:11:00,
2013-03-01 20:21:00,38.0,32.0,-100.00,North,355,5.0,6.0,79,-99.99,,,-99.99,,2013-03-02 01:21:00,
2013-03-01 20:32:00,38.0,32.0,-100.00,North,355,3.0,10.0,79,-99.99,,,-99.99,,2013-03-02 01:32:00,
2013-03-01 20:42:00,38.0,32.0,-100.00,NNW,345,5.0,10.0,79,-99.99,,,-99.99,,2013-03-02 01:42:00,
2013-03-01 20:52:00,38.0,32.0,-100.00,NNW,335,5.0,8.0,79,-99.99,,,-99.99,,2013-03-02 01:52:00,
2013-03-01 21:01:00,38.0,32.0,-100.00,North,0,5.0,7.0,80,-99.99,,,-99.99,,2013-03-02 02:01:00,
2013-03-01 21:11:00,38.0,32.0,-100.00,NNW,340,6.0,9.0,80,-99.99,,,-99.99,,2013-03-02 02:11:00,
2013-03-01 21:22:00,38.0,32.0,-100.00,NNW,345,2.0,8.0,80,-99.99,,,-99.99,,2013-03-02 02:22:00,
2013-03-01 21:32:00,38.0,32.0,-100.00,North,5,3.0,7.0,80,-99.99,,,-99.99,,2013-03-02 02:32:00,
2013-03-01 21:42:00,37.0,32.0,-100.00,North,350,5.0,9.0,81,-99.99,,,-99.99,,2013-03-02 02:42:00,
2013-03-01 21:52:00,37.0,32.0,-100.00,North,10,5.0,9.0,81,-99.99,,,-99.99,,2013-03-02 02:52:00,
2013-03-01 22:02:00,37.0,32.0,-100.00,North,10,5.0,9.0,81,-99.99,,,-99.99,,2013-03-02 03:02:00,
2013-03-01 22:11:00,37.0,32.0,-100.00,NNE,15,3.0,8.0,83,-99.99,,,-99.99,,2013-03-02 03:11:00,
2013-03-01 22:22:00,37.0,32.0,-100.00,NNW,345,3.0,7.0,82,-99.99,,,-99.99,,2013-03-02 03:22:00,
2013-03-01 22:30:00,36.0,32.0,-100.00,NNW,340,3.0,8.0,84,-99.99,,,-99.99,,2013-03-02 03:30:00,
2013-03-01 22:32:00,37.0,32.0,-100.00,NNW,335,7.0,10.0,83,-99.99,,,-99.99,,2013-03-02 03:32:00,
2013-03-01 22:42:00,37.0,32.0,-100.00,NNW,330,6.0,12.0,83,-99.99,,,-99.99,,2013-03-02 03:42:00,
2013-03-01 22:52:00,37.0,32.0,-100.00,NNW,335,5.0,7.0,83,-99.99,,,-99.99,,2013-03-02 03:52:00,
2013-03-01 23:00:00,36.0,32.0,-100.00,NNW,340,6.0,12.0,84,-99.99,,,-99.99,,2013-03-02 04:00:00,
2013-03-01 23:02:00,37.0,32.0,-100.00,NNW,335,5.0,7.0,83,-99.99,,,-99.99,,2013-03-02 04:02:00,
2013-03-01 23:12:00,36.0,32.0,-100.00,NNW,340,3.0,8.0,84,-99.99,,,-99.99,,2013-03-02 04:12:00,
2013-03-01 23:22:00,36.0,32.0,-100.00,NNW,340,3.0,8.0,84,-99.99,,,-99.99,,2013-03-02 04:22:00,
2013-03-01 23:42:00,36.0,32.0,-100.00,NNW,340,6.0,12.0,84,-99.99,,,-99.99,,2013-03-02 04:42:00,
2013-03-01 23:52:00,36.0,32.0,-100.00,NNW,340,6.0,12.0,84,-99.99,,,-99.99,,2013-03-02 04:52:00,